Hordafor III — LLVC — position and weather

sailwx.info

Track history (hours):
 
Tides and Currents Weather Stations Pressure Air Temp Water Temp Dewpoint Dewpoint Depression Visibility Wind Speed Wind Dir Waves Ship Positions

Hordafor III

Last reported at 2016-Aug-22 15:04 UTC. Time now 2016-Aug-27 08:09 UTC.
Position N 59°53' E 005°32'.

Length 50 m; draft 6 m.

Type: Wing in ground effect craft. MMSI: 258044000.

Date/timePositionNaut miles runAvg speedWind from/ knotsBaromVisibWave heightAir tempDewpointWater temp
2016-Aug-22 15:04N 59°53' E 005°32'611.5
2016-Aug-22 14:32N 59°47' E 005°33'5 5.4
2016-Aug-22 13:33N 59°42' E 005°34'2 1.8
2016-Aug-22 12:32N 59°44' E 005°34'5 0.2
2016-Aug-21 12:33N 59°43' E 005°24'1010.4
2016-Aug-21 11:33N 59°34' E 005°15'1010.0
2016-Aug-21 10:33N 59°24' E 005°16'10 9.7
2016-Aug-21 09:34N 59°15' E 005°23'1110.5
2016-Aug-21 08:33N 59°09' E 005°40'6 6.0
2016-Aug-21 07:33N 59°07' E 005°51'1 1.5
2016-Aug-21 06:33N 59°06' E 005°50'5 4.1
2016-Aug-21 05:21N 59°08' E 005°42'810.4
2016-Aug-21 04:33N 59°13' E 005°28'9 8.7
2016-Aug-21 03:33N 59°20' E 005°19'9 9.2
2016-Aug-21 02:33N 59°29' E 005°13'10 9.6
2016-Aug-21 01:32N 59°38' E 005°19'1010.4
2016-Aug-21 00:33N 59°46' E 005°32'1 1.1
2016-Aug-20 23:32N 59°47' E 005°30'0 0.0
2016-Aug-20 22:33N 59°47' E 005°30'0 0.0
2016-Aug-20 21:33N 59°47' E 005°30'0 0.0
2016-Aug-20 20:32N 59°47' E 005°30'0 0.0
2016-Aug-20 19:33N 59°47' E 005°30'0 0.0
2016-Aug-20 18:31N 59°47' E 005°30'0 0.0
2016-Aug-20 17:32N 59°47' E 005°30'0 0.0
2016-Aug-20 16:33N 59°47' E 005°30'0 0.0
2016-Aug-20 15:32N 59°47' E 005°30'0 0.0
2016-Aug-20 14:33N 59°47' E 005°30'0 0.0
2016-Aug-20 13:33N 59°47' E 005°30'1 1.0
2016-Aug-20 12:33N 59°46' E 005°32'5 0.2
2016-Aug-19 14:33N 59°45' E 005°21'10 9.6
2016-Aug-19 13:32N 59°36' E 005°17'1010.1
2016-Aug-19 12:33N 59°26' E 005°14'9 9.3
2016-Aug-19 11:33N 59°17' E 005°20'9 9.0
2016-Aug-19 10:33N 59°11' E 005°32'10 9.9
2016-Aug-19 09:33N 59°05' E 005°48'8 8.3
2016-Aug-19 08:33N 58°57' E 005°45'0 0.0
2016-Aug-19 07:33N 58°57' E 005°45'0 0.0
2016-Aug-19 06:33N 58°57' E 005°45'5 5.1
2016-Aug-19 05:33N 59°01' E 005°41'6 6.4
2016-Aug-19 04:33N 58°56' E 005°33'9 9.5
2016-Aug-19 03:33N 58°47' E 005°27'10 9.7
2016-Aug-19 02:33N 58°38' E 005°32'13 9.6
2016-Aug-19 01:14N 58°28' E 005°46'6 9.3
2016-Aug-19 00:33N 58°24' E 005°56'3 3.3
2016-Aug-18 23:33N 58°27' E 005°59'0 0.0
2016-Aug-18 22:33N 58°27' E 005°59'0 0.0
2016-Aug-18 21:33N 58°27' E 005°59'0 0.0
2016-Aug-18 20:34N 58°27' E 005°59'0 0.0
2016-Aug-18 19:33N 58°27' E 005°59'0 0.0
2016-Aug-18 18:33N 58°27' E 005°59'0 0.0
2016-Aug-18 17:33N 58°27' E 005°59'0 0.0
2016-Aug-18 16:33N 58°27' E 005°59'0 0.0
2016-Aug-18 15:33N 58°27' E 005°59'0 0.0
2016-Aug-18 14:33N 58°27' E 005°59'0 0.0
2016-Aug-18 13:33N 58°27' E 005°59'0 0.0
2016-Aug-18 12:34N 58°27' E 005°59'0 0.0
2016-Aug-18 11:34N 58°27' E 005°59'0 0.0
2016-Aug-18 10:33N 58°27' E 005°59'4 3.9
2016-Aug-18 09:33N 58°24' E 005°55'1211.1
2016-Aug-18 08:29N 58°32' E 005°39'1011.2
2016-Aug-18 07:34N 58°41' E 005°29'1111.1
2016-Aug-18 06:33N 58°51' E 005°22'1010.0
2016-Aug-18 05:34N 59°01' E 005°18'1110.6
2016-Aug-18 04:33N 59°12' E 005°20'21 9.5
2016-Aug-18 02:20N 59°33' E 005°14'910.9
2016-Aug-18 01:32N 59°40' E 005°22'10 9.7
2016-Aug-18 00:33N 59°50' E 005°17'8 0.2
2016-Aug-16 15:32N 59°49' E 005°33'9 9.1
2016-Aug-16 14:33N 59°41' E 005°25'3 3.4
2016-Aug-16 13:33N 59°39' E 005°20'28 9.3
2016-Aug-16 10:33N 59°11' E 005°21'1110.7
2016-Aug-16 09:33N 59°00' E 005°20'1010.0
2016-Aug-16 08:33N 58°51' E 005°23'1010.1
2016-Aug-16 07:33N 58°41' E 005°29'1610.5
2016-Aug-16 06:03N 58°28' E 005°46'1711.2
2016-Aug-16 04:32N 58°17' E 006°10'1010.3
2016-Aug-16 03:33N 58°15' E 006°29'3 3.3
2016-Aug-16 02:32N 58°14' E 006°36'0 0.0
2016-Aug-16 01:32N 58°14' E 006°36'0 0.0
2016-Aug-16 00:33N 58°14' E 006°36'0 0.0
2016-Aug-15 23:32N 58°14' E 006°36'0 0.0
2016-Aug-15 22:33N 58°14' E 006°36'0 0.3
2016-Aug-15 21:30N 58°14' E 006°36'0 0.0
2016-Aug-15 20:33N 58°14' E 006°36'0 0.3
2016-Aug-15 19:32N 58°14' E 006°36'0 0.0
2016-Aug-15 18:31N 58°14' E 006°36'0 0.4
2016-Aug-15 17:33N 58°14' E 006°35'10 9.8
2016-Aug-15 16:33N 58°13' E 006°16'1111.1
2016-Aug-15 15:33N 58°21' E 006°00'1211.7
2016-Aug-15 14:33N 58°29' E 005°44'1111.4
2016-Aug-15 13:33N 58°38' E 005°32'1111.2
2016-Aug-15 12:33N 58°49' E 005°23'1111.1
2016-Aug-15 11:33N 58°59' E 005°19'1111.1
2016-Aug-15 10:33N 59°11' E 005°20'2310.6
2016-Aug-15 08:23N 59°33' E 005°14'911.2
2016-Aug-15 07:33N 59°41' E 005°24'6 6.1
2016-Aug-15 06:32N 59°47' E 005°30'0 0.0
2016-Aug-14 22:29N 59°47' E 005°30'0 0.0
2016-Aug-14 21:32N 59°47' E 005°30'0 0.0
2016-Aug-14 20:33N 59°47' E 005°30'0 0.0
2016-Aug-14 19:32N 59°47' E 005°30'0 0.0
2016-Aug-14 18:33N 59°47' E 005°30'0 0.0
2016-Aug-14 17:32N 59°47' E 005°30'0 0.0
2016-Aug-14 16:33N 59°47' E 005°30'0 0.0
2016-Aug-14 15:32N 59°47' E 005°30'0 0.0
2016-Aug-14 14:33N 59°47' E 005°30'0 0.0
2016-Aug-14 13:33N 59°47' E 005°30'0 0.0
2016-Aug-14 12:32N 59°47' E 005°30'0 0.0
2016-Aug-14 11:32N 59°47' E 005°30'0 0.0
2016-Aug-14 10:33N 59°47' E 005°30'0 0.0
2016-Aug-14 09:33N 59°47' E 005°30'0 0.0
2016-Aug-14 08:32N 59°47' E 005°30'0 0.0
2016-Aug-14 07:33N 59°47' E 005°30'0 0.0
2016-Aug-14 06:33N 59°47' E 005°30'0 0.0
2016-Aug-14 04:32N 59°47' E 005°30'0 0.0
2016-Aug-14 03:31N 59°47' E 005°30'0 0.0
2016-Aug-14 02:32N 59°47' E 005°30'0 0.0
2016-Aug-14 01:33N 59°47' E 005°30'0 0.0
2016-Aug-14 00:32N 59°47' E 005°30'0 0.0
2016-Aug-13 23:33N 59°47' E 005°30'0 0.0
2016-Aug-13 22:32N 59°47' E 005°30'0 0.0
2016-Aug-13 21:31N 59°47' E 005°30'0 0.0
2016-Aug-13 20:32N 59°47' E 005°30'0 0.0
2016-Aug-13 19:32N 59°47' E 005°30'1 1.3
2016-Aug-13 18:33N 59°46' E 005°31'8 8.2
2016-Aug-13 17:32N 59°50' E 005°17'  
Track history (hours):
 
Tides and Currents Weather Stations Pressure Air Temp Water Temp Dewpoint Dewpoint Depression Visibility Wind Speed Wind Dir Waves Ship Positions

Hordafor III

Last reported at 2016-Aug-22 15:04 UTC. Time now 2016-Aug-27 08:09 UTC.
Position N 59°53' E 005°32'.

Length 50 m; draft 6 m.

Type: Wing in ground effect craft. MMSI: 258044000.

Date/timePositionNaut miles runAvg speedWind from/ knotsBaromVisibWave heightAir tempDewpointWater temp
2016-Aug-22 15:04N 59°53' E 005°32'611.5
2016-Aug-22 14:32N 59°47' E 005°33'5 5.4
2016-Aug-22 13:33N 59°42' E 005°34'2 1.8
2016-Aug-22 12:32N 59°44' E 005°34'5 0.2
2016-Aug-21 12:33N 59°43' E 005°24'1010.4
2016-Aug-21 11:33N 59°34' E 005°15'1010.0
2016-Aug-21 10:33N 59°24' E 005°16'10 9.7
2016-Aug-21 09:34N 59°15' E 005°23'1110.5
2016-Aug-21 08:33N 59°09' E 005°40'6 6.0
2016-Aug-21 07:33N 59°07' E 005°51'1 1.5
2016-Aug-21 06:33N 59°06' E 005°50'5 4.1
2016-Aug-21 05:21N 59°08' E 005°42'810.4
2016-Aug-21 04:33N 59°13' E 005°28'9 8.7
2016-Aug-21 03:33N 59°20' E 005°19'9 9.2
2016-Aug-21 02:33N 59°29' E 005°13'10 9.6
2016-Aug-21 01:32N 59°38' E 005°19'1010.4
2016-Aug-21 00:33N 59°46' E 005°32'1 1.1
2016-Aug-20 23:32N 59°47' E 005°30'0 0.0
2016-Aug-20 22:33N 59°47' E 005°30'0 0.0
2016-Aug-20 21:33N 59°47' E 005°30'0 0.0
2016-Aug-20 20:32N 59°47' E 005°30'0 0.0
2016-Aug-20 19:33N 59°47' E 005°30'0 0.0
2016-Aug-20 18:31N 59°47' E 005°30'0 0.0
2016-Aug-20 17:32N 59°47' E 005°30'0 0.0
2016-Aug-20 16:33N 59°47' E 005°30'0 0.0
2016-Aug-20 15:32N 59°47' E 005°30'0 0.0
2016-Aug-20 14:33N 59°47' E 005°30'0 0.0
2016-Aug-20 13:33N 59°47' E 005°30'1 1.0
2016-Aug-20 12:33N 59°46' E 005°32'5 0.2
2016-Aug-19 14:33N 59°45' E 005°21'10 9.6
2016-Aug-19 13:32N 59°36' E 005°17'1010.1
2016-Aug-19 12:33N 59°26' E 005°14'9 9.3
2016-Aug-19 11:33N 59°17' E 005°20'9 9.0
2016-Aug-19 10:33N 59°11' E 005°32'10 9.9
2016-Aug-19 09:33N 59°05' E 005°48'8 8.3
2016-Aug-19 08:33N 58°57' E 005°45'0 0.0
2016-Aug-19 07:33N 58°57' E 005°45'0 0.0
2016-Aug-19 06:33N 58°57' E 005°45'5 5.1
2016-Aug-19 05:33N 59°01' E 005°41'6 6.4
2016-Aug-19 04:33N 58°56' E 005°33'9 9.5
2016-Aug-19 03:33N 58°47' E 005°27'10 9.7
2016-Aug-19 02:33N 58°38' E 005°32'13 9.6
2016-Aug-19 01:14N 58°28' E 005°46'6 9.3
2016-Aug-19 00:33N 58°24' E 005°56'3 3.3
2016-Aug-18 23:33N 58°27' E 005°59'0 0.0
2016-Aug-18 22:33N 58°27' E 005°59'0 0.0
2016-Aug-18 21:33N 58°27' E 005°59'0 0.0
2016-Aug-18 20:34N 58°27' E 005°59'0 0.0
2016-Aug-18 19:33N 58°27' E 005°59'0 0.0
2016-Aug-18 18:33N 58°27' E 005°59'0 0.0
2016-Aug-18 17:33N 58°27' E 005°59'0 0.0
2016-Aug-18 16:33N 58°27' E 005°59'0 0.0
2016-Aug-18 15:33N 58°27' E 005°59'0 0.0
2016-Aug-18 14:33N 58°27' E 005°59'0 0.0
2016-Aug-18 13:33N 58°27' E 005°59'0 0.0
2016-Aug-18 12:34N 58°27' E 005°59'0 0.0
2016-Aug-18 11:34N 58°27' E 005°59'0 0.0
2016-Aug-18 10:33N 58°27' E 005°59'4 3.9
2016-Aug-18 09:33N 58°24' E 005°55'1211.1
2016-Aug-18 08:29N 58°32' E 005°39'1011.2
2016-Aug-18 07:34N 58°41' E 005°29'1111.1
2016-Aug-18 06:33N 58°51' E 005°22'1010.0
2016-Aug-18 05:34N 59°01' E 005°18'1110.6
2016-Aug-18 04:33N 59°12' E 005°20'21 9.5
2016-Aug-18 02:20N 59°33' E 005°14'910.9
2016-Aug-18 01:32N 59°40' E 005°22'10 9.7
2016-Aug-18 00:33N 59°50' E 005°17'8 0.2
2016-Aug-16 15:32N 59°49' E 005°33'9 9.1
2016-Aug-16 14:33N 59°41' E 005°25'3 3.4
2016-Aug-16 13:33N 59°39' E 005°20'28 9.3
2016-Aug-16 10:33N 59°11' E 005°21'1110.7
2016-Aug-16 09:33N 59°00' E 005°20'1010.0
2016-Aug-16 08:33N 58°51' E 005°23'1010.1
2016-Aug-16 07:33N 58°41' E 005°29'1610.5
2016-Aug-16 06:03N 58°28' E 005°46'1711.2
2016-Aug-16 04:32N 58°17' E 006°10'1010.3
2016-Aug-16 03:33N 58°15' E 006°29'3 3.3
2016-Aug-16 02:32N 58°14' E 006°36'0 0.0
2016-Aug-16 01:32N 58°14' E 006°36'0 0.0
2016-Aug-16 00:33N 58°14' E 006°36'0 0.0
2016-Aug-15 23:32N 58°14' E 006°36'0 0.0
2016-Aug-15 22:33N 58°14' E 006°36'0 0.3
2016-Aug-15 21:30N 58°14' E 006°36'0 0.0
2016-Aug-15 20:33N 58°14' E 006°36'0 0.3
2016-Aug-15 19:32N 58°14' E 006°36'0 0.0
2016-Aug-15 18:31N 58°14' E 006°36'0 0.4
2016-Aug-15 17:33N 58°14' E 006°35'10 9.8
2016-Aug-15 16:33N 58°13' E 006°16'1111.1
2016-Aug-15 15:33N 58°21' E 006°00'1211.7
2016-Aug-15 14:33N 58°29' E 005°44'1111.4
2016-Aug-15 13:33N 58°38' E 005°32'1111.2
2016-Aug-15 12:33N 58°49' E 005°23'1111.1
2016-Aug-15 11:33N 58°59' E 005°19'1111.1
2016-Aug-15 10:33N 59°11' E 005°20'2310.6
2016-Aug-15 08:23N 59°33' E 005°14'911.2
2016-Aug-15 07:33N 59°41' E 005°24'6 6.1
2016-Aug-15 06:32N 59°47' E 005°30'0 0.0
2016-Aug-14 22:29N 59°47' E 005°30'0 0.0
2016-Aug-14 21:32N 59°47' E 005°30'0 0.0
2016-Aug-14 20:33N 59°47' E 005°30'0 0.0
2016-Aug-14 19:32N 59°47' E 005°30'0 0.0
2016-Aug-14 18:33N 59°47' E 005°30'0 0.0
2016-Aug-14 17:32N 59°47' E 005°30'0 0.0
2016-Aug-14 16:33N 59°47' E 005°30'0 0.0
2016-Aug-14 15:32N 59°47' E 005°30'0 0.0
2016-Aug-14 14:33N 59°47' E 005°30'0 0.0
2016-Aug-14 13:33N 59°47' E 005°30'0 0.0
2016-Aug-14 12:32N 59°47' E 005°30'0 0.0
2016-Aug-14 11:32N 59°47' E 005°30'0 0.0
2016-Aug-14 10:33N 59°47' E 005°30'0 0.0
2016-Aug-14 09:33N 59°47' E 005°30'0 0.0
2016-Aug-14 08:32N 59°47' E 005°30'0 0.0
2016-Aug-14 07:33N 59°47' E 005°30'0 0.0
2016-Aug-14 06:33N 59°47' E 005°30'0 0.0
2016-Aug-14 04:32N 59°47' E 005°30'0 0.0
2016-Aug-14 03:31N 59°47' E 005°30'0 0.0
2016-Aug-14 02:32N 59°47' E 005°30'0 0.0
2016-Aug-14 01:33N 59°47' E 005°30'0 0.0
2016-Aug-14 00:32N 59°47' E 005°30'0 0.0
2016-Aug-13 23:33N 59°47' E 005°30'0 0.0
2016-Aug-13 22:32N 59°47' E 005°30'0 0.0
2016-Aug-13 21:31N 59°47' E 005°30'0 0.0
2016-Aug-13 20:32N 59°47' E 005°30'0 0.0
2016-Aug-13 19:32N 59°47' E 005°30'1 1.3
2016-Aug-13 18:33N 59°46' E 005°31'8 8.2
2016-Aug-13 17:32N 59°50' E 005°17'  

Dump ship's entire track history